Terminal Aerodrome Forecast
Issued by NWS

Home | Current Version | Previous Version | Text Only | Print | Product List | Glossary Off
Versions: 1 2 3 4 5 6 7 8 9 10 11 12 13 14 15 16 17 18 19

966
FTUS43 KGRB 261137
TAFCWA
TAF
KCWA 261137Z 2612/2712 07007KT 6SM -DZ BR OVC006
      TEMPO 2612/2615 1SM -RA BR OVC002
     FM261500 04005KT 4SM -SHRA BR OVC004
     FM262200 01005KT 2SM BR OVC003
     FM270400 35003KT 1SM BR OVC002=

USA.gov is the U.S. government's official web portal to all federal, state and local government web resources and services.